sensor_id;sensor_type;location;lat;lon;timestamp;P1;durP1;ratioP1;P2;durP2;ratioP2
80334;SDS011;69653;52.674;13.574;2023-06-26T00:02:24;11.93;;;7.32;;
80334;SDS011;69653;52.674;13.574;2023-06-26T00:04:50;12.83;;;7.67;;
80334;SDS011;69653;52.674;13.574;2023-06-26T00:07:19;12.75;;;6.75;;
80334;SDS011;69653;52.674;13.574;2023-06-26T00:09:47;11.27;;;7.60;;
80334;SDS011;69653;52.674;13.574;2023-06-26T00:12:12;12.27;;;8.13;;
80334;SDS011;69653;52.674;13.574;2023-06-26T00:14:37;12.57;;;8.33;;
80334;SDS011;69653;52.674;13.574;2023-06-26T00:17:03;9.30;;;6.47;;
80334;SDS011;69653;52.674;13.574;2023-06-26T00:19:28;11.93;;;7.57;;
80334;SDS011;69653;52.674;13.574;2023-06-26T00:21:53;13.00;;;8.23;;
80334;SDS011;69653;52.674;13.574;2023-06-26T00:24:19;11.93;;;7.37;;
80334;SDS011;69653;52.674;13.574;2023-06-26T00:26:46;12.13;;;7.37;;
80334;SDS011;69653;52.674;13.574;2023-06-26T00:29:12;12.27;;;7.35;;
80334;SDS011;69653;52.674;13.574;2023-06-26T00:31:37;11.48;;;7.70;;
80334;SDS011;69653;52.674;13.574;2023-06-26T00:34:05;12.00;;;7.72;;
80334;SDS011;69653;52.674;13.574;2023-06-26T00:36:30;11.88;;;7.65;;
80334;SDS011;69653;52.674;13.574;2023-06-26T00:38:55;11.13;;;7.67;;
80334;SDS011;69653;52.674;13.574;2023-06-26T00:41:21;11.33;;;7.97;;
80334;SDS011;69653;52.674;13.574;2023-06-26T00:43:46;15.20;;;7.47;;
80334;SDS011;69653;52.674;13.574;2023-06-26T00:46:14;12.77;;;7.23;;
80334;SDS011;69653;52.674;13.574;2023-06-26T00:48:41;12.18;;;7.38;;
80334;SDS011;69653;52.674;13.574;2023-06-26T00:51:07;13.70;;;8.20;;
80334;SDS011;69653;52.674;13.574;2023-06-26T00:53:33;11.18;;;7.68;;
80334;SDS011;69653;52.674;13.574;2023-06-26T00:55:59;11.20;;;7.95;;
80334;SDS011;69653;52.674;13.574;2023-06-26T00:58:26;13.57;;;8.05;;
80334;SDS011;69653;52.674;13.574;2023-06-26T01:00:51;12.63;;;7.15;;
80334;SDS011;69653;52.674;13.574;2023-06-26T01:03:17;11.68;;;7.55;;
80334;SDS011;69653;52.674;13.574;2023-06-26T01:05:44;15.60;;;7.93;;
80334;SDS011;69653;52.674;13.574;2023-06-26T01:08:11;11.82;;;8.20;;
80334;SDS011;69653;52.674;13.574;2023-06-26T01:10:37;11.82;;;8.32;;
80334;SDS011;69653;52.674;13.574;2023-06-26T01:13:03;12.90;;;8.27;;
80334;SDS011;69653;52.674;13.574;2023-06-26T01:15:29;10.88;;;7.63;;
80334;SDS011;69653;52.674;13.574;2023-06-26T01:17:54;12.15;;;7.82;;
80334;SDS011;69653;52.674;13.574;2023-06-26T01:20:25;13.73;;;8.18;;
80334;SDS011;69653;52.674;13.574;2023-06-26T01:25:37;11.75;;;7.60;;
80334;SDS011;69653;52.674;13.574;2023-06-26T01:28:23;10.10;;;7.43;;
80334;SDS011;69653;52.674;13.574;2023-06-26T01:30:50;12.35;;;7.70;;
80334;SDS011;69653;52.674;13.574;2023-06-26T01:33:16;12.50;;;8.32;;
80334;SDS011;69653;52.674;13.574;2023-06-26T01:35:42;12.88;;;8.00;;
80334;SDS011;69653;52.674;13.574;2023-06-26T01:38:15;12.95;;;8.18;;
80334;SDS011;69653;52.674;13.574;2023-06-26T01:40:41;13.35;;;8.50;;
80334;SDS011;69653;52.674;13.574;2023-06-26T01:43:09;12.98;;;7.43;;
80334;SDS011;69653;52.674;13.574;2023-06-26T01:45:41;12.18;;;8.20;;
80334;SDS011;69653;52.674;13.574;2023-06-26T01:48:07;11.43;;;7.93;;
80334;SDS011;69653;52.674;13.574;2023-06-26T01:50:36;11.70;;;8.70;;
80334;SDS011;69653;52.674;13.574;2023-06-26T01:53:10;13.90;;;8.43;;
80334;SDS011;69653;52.674;13.574;2023-06-26T01:55:44;11.15;;;8.05;;
80334;SDS011;69653;52.674;13.574;2023-06-26T01:58:12;12.00;;;8.15;;
80334;SDS011;69653;52.674;13.574;2023-06-26T02:00:39;11.35;;;7.65;;
80334;SDS011;69653;52.674;13.574;2023-06-26T02:03:05;12.25;;;8.05;;
80334;SDS011;69653;52.674;13.574;2023-06-26T02:05:31;12.23;;;7.80;;
80334;SDS011;69653;52.674;13.574;2023-06-26T02:07:57;11.35;;;7.90;;
80334;SDS011;69653;52.674;13.574;2023-06-26T02:10:22;12.13;;;7.40;;
80334;SDS011;69653;52.674;13.574;2023-06-26T02:12:47;12.03;;;8.00;;
80334;SDS011;69653;52.674;13.574;2023-06-26T02:15:13;10.60;;;7.97;;
80334;SDS011;69653;52.674;13.574;2023-06-26T02:17:38;14.00;;;7.82;;
80334;SDS011;69653;52.674;13.574;2023-06-26T02:20:04;12.48;;;7.45;;
80334;SDS011;69653;52.674;13.574;2023-06-26T02:22:30;11.00;;;7.45;;
80334;SDS011;69653;52.674;13.574;2023-06-26T02:24:56;13.27;;;8.50;;
80334;SDS011;69653;52.674;13.574;2023-06-26T02:27:21;12.80;;;8.25;;
80334;SDS011;69653;52.674;13.574;2023-06-26T02:29:46;12.57;;;7.87;;
80334;SDS011;69653;52.674;13.574;2023-06-26T02:32:12;12.73;;;7.60;;
80334;SDS011;69653;52.674;13.574;2023-06-26T02:34:37;12.03;;;8.07;;
80334;SDS011;69653;52.674;13.574;2023-06-26T02:37:02;12.57;;;8.03;;
80334;SDS011;69653;52.674;13.574;2023-06-26T02:39:28;12.27;;;7.43;;
80334;SDS011;69653;52.674;13.574;2023-06-26T02:41:53;10.95;;;7.45;;
80334;SDS011;69653;52.674;13.574;2023-06-26T02:44:19;11.07;;;8.00;;
80334;SDS011;69653;52.674;13.574;2023-06-26T02:46:44;14.48;;;9.05;;
80334;SDS011;69653;52.674;13.574;2023-06-26T02:49:09;14.77;;;8.53;;
80334;SDS011;69653;52.674;13.574;2023-06-26T02:51:35;13.52;;;9.15;;
80334;SDS011;69653;52.674;13.574;2023-06-26T02:54:00;10.77;;;8.35;;
80334;SDS011;69653;52.674;13.574;2023-06-26T02:56:26;11.27;;;7.97;;
80334;SDS011;69653;52.674;13.574;2023-06-26T02:58:55;10.77;;;7.68;;
80334;SDS011;69653;52.674;13.574;2023-06-26T03:01:21;11.63;;;7.93;;
80334;SDS011;69653;52.674;13.574;2023-06-26T03:03:46;11.55;;;8.07;;
80334;SDS011;69653;52.674;13.574;2023-06-26T03:06:12;12.37;;;8.03;;
80334;SDS011;69653;52.674;13.574;2023-06-26T03:08:38;12.45;;;8.13;;
80334;SDS011;69653;52.674;13.574;2023-06-26T03:11:04;13.10;;;8.27;;
80334;SDS011;69653;52.674;13.574;2023-06-26T03:13:30;12.80;;;8.40;;
80334;SDS011;69653;52.674;13.574;2023-06-26T03:15:56;12.50;;;8.52;;
80334;SDS011;69653;52.674;13.574;2023-06-26T03:18:21;12.90;;;8.43;;
80334;SDS011;69653;52.674;13.574;2023-06-26T03:20:47;13.67;;;8.53;;
80334;SDS011;69653;52.674;13.574;2023-06-26T03:23:13;12.43;;;8.65;;
80334;SDS011;69653;52.674;13.574;2023-06-26T03:25:38;13.40;;;8.10;;
80334;SDS011;69653;52.674;13.574;2023-06-26T03:28:04;12.75;;;8.52;;
80334;SDS011;69653;52.674;13.574;2023-06-26T03:30:29;11.53;;;8.23;;
80334;SDS011;69653;52.674;13.574;2023-06-26T03:32:54;13.03;;;8.13;;
80334;SDS011;69653;52.674;13.574;2023-06-26T03:35:19;12.30;;;7.93;;
80334;SDS011;69653;52.674;13.574;2023-06-26T03:37:45;12.00;;;8.63;;
80334;SDS011;69653;52.674;13.574;2023-06-26T03:40:10;14.52;;;8.60;;
80334;SDS011;69653;52.674;13.574;2023-06-26T03:42:36;13.50;;;7.97;;
80334;SDS011;69653;52.674;13.574;2023-06-26T03:45:01;11.77;;;8.77;;
80334;SDS011;69653;52.674;13.574;2023-06-26T03:47:26;13.43;;;7.90;;
80334;SDS011;69653;52.674;13.574;2023-06-26T03:49:52;11.70;;;7.80;;
80334;SDS011;69653;52.674;13.574;2023-06-26T03:52:17;13.47;;;9.10;;
80334;SDS011;69653;52.674;13.574;2023-06-26T03:54:42;12.93;;;9.40;;
80334;SDS011;69653;52.674;13.574;2023-06-26T03:57:08;10.68;;;8.23;;
80334;SDS011;69653;52.674;13.574;2023-06-26T03:59:33;12.60;;;8.80;;
80334;SDS011;69653;52.674;13.574;2023-06-26T04:01:59;12.70;;;9.97;;
80334;SDS011;69653;52.674;13.574;2023-06-26T04:04:24;15.80;;;8.87;;
80334;SDS011;69653;52.674;13.574;2023-06-26T04:06:49;14.37;;;9.47;;
80334;SDS011;69653;52.674;13.574;2023-06-26T04:09:15;12.13;;;8.90;;
80334;SDS011;69653;52.674;13.574;2023-06-26T04:11:41;13.30;;;9.15;;
80334;SDS011;69653;52.674;13.574;2023-06-26T04:14:06;13.57;;;9.00;;
80334;SDS011;69653;52.674;13.574;2023-06-26T04:16:32;13.40;;;9.17;;
80334;SDS011;69653;52.674;13.574;2023-06-26T04:18:57;12.67;;;9.43;;
80334;SDS011;69653;52.674;13.574;2023-06-26T04:21:23;15.30;;;9.27;;
80334;SDS011;69653;52.674;13.574;2023-06-26T04:23:50;12.52;;;9.15;;
80334;SDS011;69653;52.674;13.574;2023-06-26T04:26:16;15.77;;;9.85;;
80334;SDS011;69653;52.674;13.574;2023-06-26T04:28:41;13.23;;;9.13;;
80334;SDS011;69653;52.674;13.574;2023-06-26T04:31:07;13.70;;;9.52;;
80334;SDS011;69653;52.674;13.574;2023-06-26T04:33:33;14.05;;;9.30;;
80334;SDS011;69653;52.674;13.574;2023-06-26T04:36:01;13.38;;;9.13;;
80334;SDS011;69653;52.674;13.574;2023-06-26T04:38:28;15.30;;;9.20;;
80334;SDS011;69653;52.674;13.574;2023-06-26T04:40:53;11.55;;;8.48;;
80334;SDS011;69653;52.674;13.574;2023-06-26T04:43:19;13.73;;;9.25;;
80334;SDS011;69653;52.674;13.574;2023-06-26T04:45:44;12.87;;;9.37;;
80334;SDS011;69653;52.674;13.574;2023-06-26T04:48:10;14.00;;;9.23;;
80334;SDS011;69653;52.674;13.574;2023-06-26T04:50:35;13.75;;;9.55;;
80334;SDS011;69653;52.674;13.574;2023-06-26T04:53:01;13.25;;;8.73;;
80334;SDS011;69653;52.674;13.574;2023-06-26T04:55:27;11.55;;;8.38;;
80334;SDS011;69653;52.674;13.574;2023-06-26T04:57:53;14.13;;;8.55;;
80334;SDS011;69653;52.674;13.574;2023-06-26T05:00:19;15.15;;;9.35;;
80334;SDS011;69653;52.674;13.574;2023-06-26T05:02:44;14.48;;;9.55;;
80334;SDS011;69653;52.674;13.574;2023-06-26T05:05:10;14.55;;;9.05;;
80334;SDS011;69653;52.674;13.574;2023-06-26T05:07:35;13.47;;;8.97;;
80334;SDS011;69653;52.674;13.574;2023-06-26T05:10:01;13.82;;;9.43;;
80334;SDS011;69653;52.674;13.574;2023-06-26T05:12:26;14.53;;;8.83;;
80334;SDS011;69653;52.674;13.574;2023-06-26T05:14:51;12.60;;;9.37;;
80334;SDS011;69653;52.674;13.574;2023-06-26T05:17:17;12.68;;;9.65;;
80334;SDS011;69653;52.674;13.574;2023-06-26T05:19:42;13.43;;;9.00;;
80334;SDS011;69653;52.674;13.574;2023-06-26T05:22:08;12.27;;;8.38;;
80334;SDS011;69653;52.674;13.574;2023-06-26T05:24:37;13.93;;;9.60;;
80334;SDS011;69653;52.674;13.574;2023-06-26T05:27:03;14.82;;;10.30;;
80334;SDS011;69653;52.674;13.574;2023-06-26T05:29:30;11.73;;;8.60;;
80334;SDS011;69653;52.674;13.574;2023-06-26T05:31:56;13.45;;;9.00;;
80334;SDS011;69653;52.674;13.574;2023-06-26T05:34:25;13.32;;;8.55;;
80334;SDS011;69653;52.674;13.574;2023-06-26T05:36:55;15.07;;;8.65;;
80334;SDS011;69653;52.674;13.574;2023-06-26T05:39:22;14.07;;;9.52;;
80334;SDS011;69653;52.674;13.574;2023-06-26T05:41:48;10.32;;;7.35;;
80334;SDS011;69653;52.674;13.574;2023-06-26T05:44:14;10.82;;;7.93;;
80334;SDS011;69653;52.674;13.574;2023-06-26T05:46:39;10.40;;;7.93;;
80334;SDS011;69653;52.674;13.574;2023-06-26T05:49:04;11.37;;;8.17;;
80334;SDS011;69653;52.674;13.574;2023-06-26T05:51:30;11.33;;;7.33;;
80334;SDS011;69653;52.674;13.574;2023-06-26T05:53:55;13.32;;;7.78;;
80334;SDS011;69653;52.674;13.574;2023-06-26T05:56:21;10.75;;;6.93;;
80334;SDS011;69653;52.674;13.574;2023-06-26T05:58:47;10.50;;;6.80;;
80334;SDS011;69653;52.674;13.574;2023-06-26T06:01:13;10.07;;;6.75;;
80334;SDS011;69653;52.674;13.574;2023-06-26T06:03:38;10.68;;;6.47;;
80334;SDS011;69653;52.674;13.574;2023-06-26T06:06:04;7.90;;;5.43;;
80334;SDS011;69653;52.674;13.574;2023-06-26T06:08:30;8.32;;;5.53;;
80334;SDS011;69653;52.674;13.574;2023-06-26T06:10:55;11.07;;;5.63;;
80334;SDS011;69653;52.674;13.574;2023-06-26T06:13:20;9.85;;;6.65;;
80334;SDS011;69653;52.674;13.574;2023-06-26T06:15:46;8.07;;;5.63;;
80334;SDS011;69653;52.674;13.574;2023-06-26T06:18:11;10.00;;;6.07;;
80334;SDS011;69653;52.674;13.574;2023-06-26T06:20:36;10.13;;;6.33;;
80334;SDS011;69653;52.674;13.574;2023-06-26T06:23:02;10.13;;;7.17;;
80334;SDS011;69653;52.674;13.574;2023-06-26T06:25:27;10.70;;;6.70;;
80334;SDS011;69653;52.674;13.574;2023-06-26T06:27:52;10.10;;;6.33;;
80334;SDS011;69653;52.674;13.574;2023-06-26T06:30:18;11.33;;;7.40;;
80334;SDS011;69653;52.674;13.574;2023-06-26T06:32:43;12.80;;;8.37;;
80334;SDS011;69653;52.674;13.574;2023-06-26T06:35:08;12.27;;;7.33;;
80334;SDS011;69653;52.674;13.574;2023-06-26T06:37:37;10.18;;;7.35;;
80334;SDS011;69653;52.674;13.574;2023-06-26T06:40:03;12.50;;;6.85;;
80334;SDS011;69653;52.674;13.574;2023-06-26T06:42:31;11.95;;;7.78;;
80334;SDS011;69653;52.674;13.574;2023-06-26T06:44:56;11.95;;;6.93;;
80334;SDS011;69653;52.674;13.574;2023-06-26T06:47:22;10.13;;;7.03;;
80334;SDS011;69653;52.674;13.574;2023-06-26T06:49:47;9.77;;;6.73;;
80334;SDS011;69653;52.674;13.574;2023-06-26T06:52:12;9.57;;;6.70;;
80334;SDS011;69653;52.674;13.574;2023-06-26T06:54:53;9.17;;;6.30;;
80334;SDS011;69653;52.674;13.574;2023-06-26T06:57:20;9.82;;;6.30;;
80334;SDS011;69653;52.674;13.574;2023-06-26T06:59:46;11.70;;;7.60;;
80334;SDS011;69653;52.674;13.574;2023-06-26T07:02:13;12.20;;;6.57;;
80334;SDS011;69653;52.674;13.574;2023-06-26T07:04:39;10.23;;;6.13;;
80334;SDS011;69653;52.674;13.574;2023-06-26T07:07:04;10.20;;;6.07;;
80334;SDS011;69653;52.674;13.574;2023-06-26T07:09:30;8.48;;;5.75;;
80334;SDS011;69653;52.674;13.574;2023-06-26T07:11:55;10.50;;;6.37;;
80334;SDS011;69653;52.674;13.574;2023-06-26T07:14:20;7.50;;;5.40;;
80334;SDS011;69653;52.674;13.574;2023-06-26T07:16:46;8.45;;;5.18;;
80334;SDS011;69653;52.674;13.574;2023-06-26T07:19:11;10.70;;;5.90;;
80334;SDS011;69653;52.674;13.574;2023-06-26T07:21:36;7.57;;;5.35;;
80334;SDS011;69653;52.674;13.574;2023-06-26T07:24:02;11.73;;;5.93;;
80334;SDS011;69653;52.674;13.574;2023-06-26T07:26:27;8.63;;;5.63;;
80334;SDS011;69653;52.674;13.574;2023-06-26T07:28:52;7.90;;;4.97;;
80334;SDS011;69653;52.674;13.574;2023-06-26T07:31:19;8.48;;;4.90;;
80334;SDS011;69653;52.674;13.574;2023-06-26T07:33:45;8.47;;;5.03;;
80334;SDS011;69653;52.674;13.574;2023-06-26T07:36:11;9.95;;;4.63;;
80334;SDS011;69653;52.674;13.574;2023-06-26T07:38:36;6.53;;;4.82;;
80334;SDS011;69653;52.674;13.574;2023-06-26T07:41:01;6.77;;;4.43;;
80334;SDS011;69653;52.674;13.574;2023-06-26T07:43:27;6.70;;;4.90;;
80334;SDS011;69653;52.674;13.574;2023-06-26T07:45:52;10.60;;;5.37;;
80334;SDS011;69653;52.674;13.574;2023-06-26T07:48:18;7.75;;;4.88;;
80334;SDS011;69653;52.674;13.574;2023-06-26T07:50:43;6.47;;;4.63;;
80334;SDS011;69653;52.674;13.574;2023-06-26T07:53:09;7.80;;;5.00;;
80334;SDS011;69653;52.674;13.574;2023-06-26T07:55:34;8.07;;;4.65;;
80334;SDS011;69653;52.674;13.574;2023-06-26T07:58:00;7.68;;;4.38;;
80334;SDS011;69653;52.674;13.574;2023-06-26T08:00:26;7.82;;;4.75;;
80334;SDS011;69653;52.674;13.574;2023-06-26T08:02:52;6.85;;;4.68;;
80334;SDS011;69653;52.674;13.574;2023-06-26T08:05:17;8.35;;;4.43;;
80334;SDS011;69653;52.674;13.574;2023-06-26T08:07:43;6.63;;;4.25;;
80334;SDS011;69653;52.674;13.574;2023-06-26T08:10:08;7.75;;;4.63;;
80334;SDS011;69653;52.674;13.574;2023-06-26T08:12:34;7.13;;;4.57;;
80334;SDS011;69653;52.674;13.574;2023-06-26T08:14:59;6.13;;;4.10;;
80334;SDS011;69653;52.674;13.574;2023-06-26T08:17:27;6.63;;;4.40;;
80334;SDS011;69653;52.674;13.574;2023-06-26T08:19:52;5.90;;;4.10;;
80334;SDS011;69653;52.674;13.574;2023-06-26T08:22:18;6.07;;;4.20;;
80334;SDS011;69653;52.674;13.574;2023-06-26T08:24:43;5.83;;;4.30;;
80334;SDS011;69653;52.674;13.574;2023-06-26T08:27:08;6.93;;;3.67;;
80334;SDS011;69653;52.674;13.574;2023-06-26T08:29:34;7.90;;;4.17;;
80334;SDS011;69653;52.674;13.574;2023-06-26T08:31:59;7.87;;;4.43;;
80334;SDS011;69653;52.674;13.574;2023-06-26T08:34:24;6.20;;;3.90;;
80334;SDS011;69653;52.674;13.574;2023-06-26T08:36:49;5.90;;;4.00;;
80334;SDS011;69653;52.674;13.574;2023-06-26T08:39:15;6.43;;;4.17;;
80334;SDS011;69653;52.674;13.574;2023-06-26T08:41:40;6.47;;;4.43;;
80334;SDS011;69653;52.674;13.574;2023-06-26T08:44:06;6.60;;;4.13;;
80334;SDS011;69653;52.674;13.574;2023-06-26T08:46:32;6.17;;;4.33;;
80334;SDS011;69653;52.674;13.574;2023-06-26T08:49:08;7.50;;;4.60;;
80334;SDS011;69653;52.674;13.574;2023-06-26T08:51:48;7.45;;;4.15;;
80334;SDS011;69653;52.674;13.574;2023-06-26T08:54:17;6.55;;;4.50;;
80334;SDS011;69653;52.674;13.574;2023-06-26T08:56:53;5.85;;;3.60;;
80334;SDS011;69653;52.674;13.574;2023-06-26T08:59:19;5.85;;;4.30;;
80334;SDS011;69653;52.674;13.574;2023-06-26T09:01:46;6.63;;;4.32;;
80334;SDS011;69653;52.674;13.574;2023-06-26T09:04:12;6.05;;;3.67;;
80334;SDS011;69653;52.674;13.574;2023-06-26T09:06:39;7.22;;;4.35;;
80334;SDS011;69653;52.674;13.574;2023-06-26T09:09:04;8.52;;;4.18;;
80334;SDS011;69653;52.674;13.574;2023-06-26T09:11:29;5.60;;;3.50;;
80334;SDS011;69653;52.674;13.574;2023-06-26T09:13:55;5.83;;;3.77;;
80334;SDS011;69653;52.674;13.574;2023-06-26T09:16:24;6.80;;;4.13;;
80334;SDS011;69653;52.674;13.574;2023-06-26T09:18:52;8.30;;;3.80;;
80334;SDS011;69653;52.674;13.574;2023-06-26T09:21:18;5.78;;;3.65;;
80334;SDS011;69653;52.674;13.574;2023-06-26T09:23:43;6.30;;;3.63;;
80334;SDS011;69653;52.674;13.574;2023-06-26T09:26:09;5.57;;;3.60;;
80334;SDS011;69653;52.674;13.574;2023-06-26T09:28:36;5.45;;;3.42;;
80334;SDS011;69653;52.674;13.574;2023-06-26T09:31:02;5.83;;;3.40;;
80334;SDS011;69653;52.674;13.574;2023-06-26T09:33:32;6.15;;;4.03;;
80334;SDS011;69653;52.674;13.574;2023-06-26T09:35:59;5.78;;;4.18;;
80334;SDS011;69653;52.674;13.574;2023-06-26T09:38:24;6.43;;;4.00;;
80334;SDS011;69653;52.674;13.574;2023-06-26T09:40:49;6.63;;;3.47;;
80334;SDS011;69653;52.674;13.574;2023-06-26T09:43:14;7.93;;;4.03;;
80334;SDS011;69653;52.674;13.574;2023-06-26T09:45:40;6.05;;;3.80;;
80334;SDS011;69653;52.674;13.574;2023-06-26T09:48:06;6.68;;;3.95;;
80334;SDS011;69653;52.674;13.574;2023-06-26T09:50:36;5.95;;;3.85;;
80334;SDS011;69653;52.674;13.574;2023-06-26T09:53:12;5.88;;;3.70;;
80334;SDS011;69653;52.674;13.574;2023-06-26T09:55:38;7.78;;;4.07;;
80334;SDS011;69653;52.674;13.574;2023-06-26T09:58:05;6.10;;;3.70;;
80334;SDS011;69653;52.674;13.574;2023-06-26T10:00:31;5.82;;;3.60;;
80334;SDS011;69653;52.674;13.574;2023-06-26T10:03:00;5.00;;;3.25;;
80334;SDS011;69653;52.674;13.574;2023-06-26T10:05:26;5.20;;;3.33;;
80334;SDS011;69653;52.674;13.574;2023-06-26T10:07:52;5.97;;;3.42;;
80334;SDS011;69653;52.674;13.574;2023-06-26T10:10:18;7.03;;;4.03;;
80334;SDS011;69653;52.674;13.574;2023-06-26T10:12:46;6.35;;;3.65;;
80334;SDS011;69653;52.674;13.574;2023-06-26T10:15:14;5.57;;;3.67;;
80334;SDS011;69653;52.674;13.574;2023-06-26T10:17:42;6.45;;;3.90;;
80334;SDS011;69653;52.674;13.574;2023-06-26T10:20:08;6.07;;;3.60;;
80334;SDS011;69653;52.674;13.574;2023-06-26T10:22:39;5.22;;;3.38;;
80334;SDS011;69653;52.674;13.574;2023-06-26T10:25:09;6.90;;;3.65;;
80334;SDS011;69653;52.674;13.574;2023-06-26T10:27:37;5.57;;;3.63;;
80334;SDS011;69653;52.674;13.574;2023-06-26T10:30:09;6.25;;;3.60;;
80334;SDS011;69653;52.674;13.574;2023-06-26T10:32:38;5.63;;;3.90;;
80334;SDS011;69653;52.674;13.574;2023-06-26T10:35:05;7.65;;;3.50;;
80334;SDS011;69653;52.674;13.574;2023-06-26T10:40:08;5.10;;;3.50;;
80334;SDS011;69653;52.674;13.574;2023-06-26T10:42:36;6.80;;;3.35;;
80334;SDS011;69653;52.674;13.574;2023-06-26T10:45:36;5.47;;;3.67;;
80334;SDS011;69653;52.674;13.574;2023-06-26T10:47:54;5.65;;;3.80;;
80334;SDS011;69653;52.674;13.574;2023-06-26T10:50:24;5.72;;;3.70;;
80334;SDS011;69653;52.674;13.574;2023-06-26T10:53:14;6.28;;;3.45;;
80334;SDS011;69653;52.674;13.574;2023-06-26T10:56:00;5.10;;;3.30;;
80334;SDS011;69653;52.674;13.574;2023-06-26T10:58:28;5.25;;;3.35;;
80334;SDS011;69653;52.674;13.574;2023-06-26T11:01:13;6.18;;;3.42;;
80334;SDS011;69653;52.674;13.574;2023-06-26T11:03:59;5.47;;;3.22;;
80334;SDS011;69653;52.674;13.574;2023-06-26T11:06:28;6.70;;;3.47;;
80334;SDS011;69653;52.674;13.574;2023-06-26T11:08:54;6.03;;;3.63;;
80334;SDS011;69653;52.674;13.574;2023-06-26T11:11:54;6.72;;;3.75;;
80334;SDS011;69653;52.674;13.574;2023-06-26T11:14:25;8.43;;;4.80;;
80334;SDS011;69653;52.674;13.574;2023-06-26T11:16:51;6.20;;;4.00;;
80334;SDS011;69653;52.674;13.574;2023-06-26T11:19:18;5.78;;;3.92;;
80334;SDS011;69653;52.674;13.574;2023-06-26T11:21:44;6.25;;;3.40;;
80334;SDS011;69653;52.674;13.574;2023-06-26T11:24:11;5.95;;;3.60;;
80334;SDS011;69653;52.674;13.574;2023-06-26T11:26:41;6.05;;;3.72;;
80334;SDS011;69653;52.674;13.574;2023-06-26T11:29:07;5.68;;;3.58;;
80334;SDS011;69653;52.674;13.574;2023-06-26T11:31:34;7.32;;;3.67;;
80334;SDS011;69653;52.674;13.574;2023-06-26T11:34:02;6.45;;;4.43;;
80334;SDS011;69653;52.674;13.574;2023-06-26T11:36:28;4.97;;;3.33;;
80334;SDS011;69653;52.674;13.574;2023-06-26T11:38:58;5.93;;;3.50;;
80334;SDS011;69653;52.674;13.574;2023-06-26T11:41:29;6.10;;;3.80;;
80334;SDS011;69653;52.674;13.574;2023-06-26T11:43:55;6.97;;;3.75;;
80334;SDS011;69653;52.674;13.574;2023-06-26T11:46:25;5.20;;;3.30;;
80334;SDS011;69653;52.674;13.574;2023-06-26T11:48:50;6.10;;;3.87;;
80334;SDS011;69653;52.674;13.574;2023-06-26T11:51:15;6.15;;;3.55;;
80334;SDS011;69653;52.674;13.574;2023-06-26T11:53:41;6.67;;;4.07;;
80334;SDS011;69653;52.674;13.574;2023-06-26T11:56:11;5.63;;;3.65;;
80334;SDS011;69653;52.674;13.574;2023-06-26T11:58:56;6.40;;;3.50;;
80334;SDS011;69653;52.674;13.574;2023-06-26T12:01:23;5.63;;;3.30;;
80334;SDS011;69653;52.674;13.574;2023-06-26T12:03:50;6.68;;;3.60;;
80334;SDS011;69653;52.674;13.574;2023-06-26T12:06:15;6.55;;;3.45;;
80334;SDS011;69653;52.674;13.574;2023-06-26T12:08:42;5.38;;;3.70;;
80334;SDS011;69653;52.674;13.574;2023-06-26T12:11:08;7.07;;;3.92;;
80334;SDS011;69653;52.674;13.574;2023-06-26T12:13:34;6.57;;;3.70;;
80334;SDS011;69653;52.674;13.574;2023-06-26T12:15:59;6.40;;;3.53;;
80334;SDS011;69653;52.674;13.574;2023-06-26T12:18:25;6.10;;;3.80;;
80334;SDS011;69653;52.674;13.574;2023-06-26T12:20:51;7.35;;;3.47;;
80334;SDS011;69653;52.674;13.574;2023-06-26T12:23:17;6.88;;;3.92;;
80334;SDS011;69653;52.674;13.574;2023-06-26T12:25:42;5.63;;;3.87;;
80334;SDS011;69653;52.674;13.574;2023-06-26T12:28:17;6.40;;;3.50;;
80334;SDS011;69653;52.674;13.574;2023-06-26T12:30:47;5.50;;;3.78;;
80334;SDS011;69653;52.674;13.574;2023-06-26T12:33:32;5.95;;;4.05;;
80334;SDS011;69653;52.674;13.574;2023-06-26T12:35:58;6.20;;;3.70;;
80334;SDS011;69653;52.674;13.574;2023-06-26T12:38:23;5.73;;;3.37;;
80334;SDS011;69653;52.674;13.574;2023-06-26T12:40:48;5.53;;;3.73;;
80334;SDS011;69653;52.674;13.574;2023-06-26T12:43:23;5.60;;;3.70;;
80334;SDS011;69653;52.674;13.574;2023-06-26T12:45:53;7.63;;;4.30;;
80334;SDS011;69653;52.674;13.574;2023-06-26T12:48:20;5.30;;;3.55;;
80334;SDS011;69653;52.674;13.574;2023-06-26T12:50:45;6.33;;;3.40;;
80334;SDS011;69653;52.674;13.574;2023-06-26T12:53:11;6.10;;;3.97;;
80334;SDS011;69653;52.674;13.574;2023-06-26T12:55:36;6.88;;;4.10;;
80334;SDS011;69653;52.674;13.574;2023-06-26T12:58:02;6.63;;;3.85;;
80334;SDS011;69653;52.674;13.574;2023-06-26T13:00:27;6.43;;;3.90;;
80334;SDS011;69653;52.674;13.574;2023-06-26T13:02:52;6.07;;;3.77;;
80334;SDS011;69653;52.674;13.574;2023-06-26T13:05:18;6.73;;;4.00;;
80334;SDS011;69653;52.674;13.574;2023-06-26T13:07:43;8.67;;;4.50;;
80334;SDS011;69653;52.674;13.574;2023-06-26T13:10:08;6.93;;;4.27;;
80334;SDS011;69653;52.674;13.574;2023-06-26T13:12:34;5.80;;;3.65;;
80334;SDS011;69653;52.674;13.574;2023-06-26T13:14:59;5.23;;;3.53;;
80334;SDS011;69653;52.674;13.574;2023-06-26T13:17:24;6.57;;;3.80;;
80334;SDS011;69653;52.674;13.574;2023-06-26T13:19:50;6.90;;;4.03;;
80334;SDS011;69653;52.674;13.574;2023-06-26T13:22:15;6.33;;;4.27;;
80334;SDS011;69653;52.674;13.574;2023-06-26T13:24:40;5.97;;;3.80;;
80334;SDS011;69653;52.674;13.574;2023-06-26T13:27:06;5.97;;;4.10;;
80334;SDS011;69653;52.674;13.574;2023-06-26T13:29:32;8.27;;;3.90;;
80334;SDS011;69653;52.674;13.574;2023-06-26T13:31:57;6.72;;;4.07;;
80334;SDS011;69653;52.674;13.574;2023-06-26T13:34:23;5.47;;;3.83;;
80334;SDS011;69653;52.674;13.574;2023-06-26T13:36:52;7.75;;;4.00;;
80334;SDS011;69653;52.674;13.574;2023-06-26T13:39:18;7.10;;;4.72;;
80334;SDS011;69653;52.674;13.574;2023-06-26T13:41:44;7.45;;;4.38;;
80334;SDS011;69653;52.674;13.574;2023-06-26T13:44:09;8.35;;;3.95;;
80334;SDS011;69653;52.674;13.574;2023-06-26T13:46:35;6.38;;;4.22;;
80334;SDS011;69653;52.674;13.574;2023-06-26T13:49:00;8.57;;;5.23;;
80334;SDS011;69653;52.674;13.574;2023-06-26T13:51:26;6.63;;;4.23;;
80334;SDS011;69653;52.674;13.574;2023-06-26T13:53:51;7.80;;;5.23;;
80334;SDS011;69653;52.674;13.574;2023-06-26T13:56:16;8.50;;;4.47;;
80334;SDS011;69653;52.674;13.574;2023-06-26T13:58:42;8.67;;;4.17;;
80334;SDS011;69653;52.674;13.574;2023-06-26T14:01:07;6.30;;;4.00;;
80334;SDS011;69653;52.674;13.574;2023-06-26T14:03:32;7.50;;;4.47;;
80334;SDS011;69653;52.674;13.574;2023-06-26T14:05:57;6.13;;;4.27;;
80334;SDS011;69653;52.674;13.574;2023-06-26T14:08:23;6.93;;;3.97;;
80334;SDS011;69653;52.674;13.574;2023-06-26T14:10:48;6.97;;;4.77;;
80334;SDS011;69653;52.674;13.574;2023-06-26T14:13:14;6.07;;;4.20;;
80334;SDS011;69653;52.674;13.574;2023-06-26T14:15:40;7.22;;;4.55;;
80334;SDS011;69653;52.674;13.574;2023-06-26T14:18:07;6.97;;;4.25;;
80334;SDS011;69653;52.674;13.574;2023-06-26T14:20:33;8.13;;;5.10;;
80334;SDS011;69653;52.674;13.574;2023-06-26T14:22:58;6.25;;;4.68;;
80334;SDS011;69653;52.674;13.574;2023-06-26T14:25:24;7.35;;;4.53;;
80334;SDS011;69653;52.674;13.574;2023-06-26T14:27:53;8.48;;;4.80;;
80334;SDS011;69653;52.674;13.574;2023-06-26T14:30:18;9.63;;;6.20;;
80334;SDS011;69653;52.674;13.574;2023-06-26T14:32:44;11.40;;;5.18;;